Accueil
METAR-TAF:

METAR-TAF

Aéroports :

Mannheim, Allemagne

Aéroport de Mannheim

latitude: 49-28-21N, longitude: 008-30-56E, altitude: 100 m

Observation

Le bulletin a été fait il y a 33 minutes, à 07:50 UTC
Vent 4 kt de sud-ouest, variant entre sud et ouest
Température 4°C
Humidité 100%
Pression 1024 hPa
Visibilité: 0500 m
Ciel couvert à une hauteur de 100 ft
brouillard

METAR: EDFM 180750Z 23004KT 190V260 0500 0550/ R27/0800V1500U FG OVC001 04/04 Q1024

Heure: 09:23 (08:23 UTC)

Prévision

Le bulletin a été fait il y a 15 heures et 23 minutes, à 17:00 UTC
Prévision valable du 17 à 18 UTC au 17 à 21 UTC
Vent 3 kt de direction variable
Visibilité: 6000 m
Ciel couvert à une hauteur de 1000 ft
Temporairement
du 17 à 18 UTC au 17 à 21 UTC
Visibilité: 3000 m
Ciel couvert à une hauteur de 800 ft
brume

TAF: EDFM 171700Z 1718/1721 VRB03KT 6000 OVC010 TEMPO 1718/1721 3000 BR OVC008

Observations et prévisions météorologiques de plus de 4000 aéroports (messages METAR et TAF).

Les stations disponibles sont représentées par des disques jaunes et rouges sur la carte.

Passer la souris dessus pour voir le nom de la station.

Cliquer dessus pour voir les observations et prévisions météorologiques.

Pour changer de carte: cliquez sur les boutons verts avec une croix noire pour zoomer, sur le bouton vert avec un tiret pour effectuer un zoom arrière, ou sur les flèches vertes pour les cartes adjacentes.


METAR-TAF: